Startpagina
METAR-TAF:

METAR-TAF

Vliegvelden :

Pointe-Noire, Congo

Luchthaven Pointe-Noire

breedte: 04-49S, lengte: 011-54E, hoogte: 17 m

Actueel weer

Dit bericht is 20 uur en het 6 minuten geleden gemaakt, om 15:00 UTC
Wind 5 kt uit het zuidzuidwesten
Temperatuur 28°C
Vochtigheid 79%
Druk 1007 hPa
Zicht 10 km of meer
Weinig wolken op 1300 ft
Verspreide wolken op 2600 ft

METAR: FCPP 201500Z 20005KT 9999 FEW013 SCT026 28/24 Q1007 NOSIG

Tijdstip: 12:06 (11:06 UTC)

Verwachting

Dit bericht is 6 minuten geleden gemaakt, om 11:00 UTC
Verwachting geldig van 20 om 12 UTC tot 21 om 12 UTC
Wind 7 kt uit het zuiden
Zicht 10 km of meer
Verspreide wolken op 2300 ft
Wijzigt naar
van 20 om 12 UTC tot 20 om 14 UTC
Verspreide wolken op 2300 ft
Weinig wolken op 3000 ft, Cumulonimbus.
Kans 30% :
Tijdelijke
van 20 om 15 UTC tot 20 om 18 UTC
onweer

TAF: FCPP 201100Z 2012/2112 17007KT 9999 SCT023 BECMG 2012/2014 SCT023 FEW030CB PROB30 TEMPO 2015/2018 TS

Waarnemingen en weersverwachtingen van meer dan 4000 vliegvelden (METAR en TAF).

De beschikbare stations zijn de gele en rode punten op de kaart.

Ga met uw muis naar het station om de naam te zien.

Klik dan om waarnemingen en weersverwachtingen te zien.

kaart wijzigen: klik op de groene knoppen met een zwart kruis om in te zoomen, op de groene knop met een streepje om uit te zoomen of op de groene pijlen voor aangrenzende kaarten.


METAR-TAF: